createdAt,value
2022-08-28T00:01:39.412Z,2.10
2022-08-28T00:04:06.045Z,3.80
2022-08-28T00:06:32.677Z,7.10
2022-08-28T00:08:59.292Z,5.67
2022-08-28T00:11:26.139Z,3.37
2022-08-28T00:13:52.782Z,4.13
2022-08-28T00:16:19.554Z,3.77
2022-08-28T00:18:47.197Z,6.67
2022-08-28T00:21:14.676Z,7.63
2022-08-28T00:23:42.330Z,4.70
2022-08-28T00:26:09.422Z,3.60
2022-08-28T00:28:36.054Z,5.43
2022-08-28T00:31:02.771Z,3.90
2022-08-28T00:33:33.133Z,4.53
2022-08-28T00:36:01.125Z,5.57
2022-08-28T00:38:28.484Z,2.60
2022-08-28T00:40:57.567Z,2.93
2022-08-28T00:43:45.910Z,5.17
2022-08-28T00:46:15.334Z,5.63
2022-08-28T00:48:42.001Z,5.67
2022-08-28T00:51:28.000Z,4.67
2022-08-28T00:53:58.981Z,4.53
2022-08-28T00:56:27.633Z,3.90
2022-08-28T00:58:57.656Z,7.73
2022-08-28T01:01:24.578Z,5.07
2022-08-28T01:03:51.265Z,4.53
2022-08-28T01:06:20.620Z,6.00
2022-08-28T01:08:50.508Z,4.30
2022-08-28T01:11:18.521Z,6.50
2022-08-28T01:13:48.492Z,3.70
2022-08-28T01:16:19.128Z,3.43
2022-08-28T01:18:46.208Z,4.77
2022-08-28T01:21:24.964Z,5.70
2022-08-28T01:23:54.273Z,4.87
2022-08-28T01:26:21.725Z,2.80
2022-08-28T01:28:48.653Z,5.47
2022-08-28T01:31:16.487Z,5.77
2022-08-28T01:33:43.871Z,6.73
2022-08-28T01:36:12.633Z,6.83
2022-08-28T01:38:40.537Z,4.37
2022-08-28T01:41:07.341Z,5.60
2022-08-28T01:43:35.085Z,4.70
2022-08-28T01:46:04.455Z,3.67
2022-08-28T01:48:32.856Z,3.70
2022-08-28T01:50:59.457Z,3.27
2022-08-28T01:53:32.136Z,3.67
2022-08-28T01:56:00.716Z,6.70
2022-08-28T01:58:28.186Z,6.20
2022-08-28T02:00:57.508Z,6.03
2022-08-28T02:03:24.264Z,6.70
2022-08-28T02:05:52.146Z,6.40
2022-08-28T02:08:18.791Z,7.30
2022-08-28T02:10:45.486Z,6.07
2022-08-28T02:13:12.505Z,4.47
2022-08-28T02:15:41.513Z,6.67
2022-08-28T02:18:08.329Z,5.07
2022-08-28T02:20:35.061Z,5.50
2022-08-28T02:23:01.796Z,6.57
2022-08-28T02:25:28.851Z,5.97
2022-08-28T02:27:55.545Z,8.37
2022-08-28T02:30:22.588Z,9.80
2022-08-28T02:32:49.822Z,6.43
2022-08-28T02:35:18.681Z,8.93
2022-08-28T02:37:47.635Z,9.27
2022-08-28T02:40:16.114Z,7.13
2022-08-28T02:42:43.072Z,7.03
2022-08-28T02:45:11.892Z,8.40
2022-08-28T02:47:40.019Z,6.73
2022-08-28T02:50:07.546Z,9.27
2022-08-28T02:52:37.501Z,10.17
2022-08-28T02:55:05.968Z,7.07
2022-08-28T02:57:32.610Z,8.37
2022-08-28T02:59:59.917Z,9.07
2022-08-28T03:02:27.106Z,7.83
2022-08-28T03:04:54.654Z,7.73
2022-08-28T03:07:22.734Z,6.73
2022-08-28T03:09:50.174Z,8.33
2022-08-28T03:12:17.212Z,4.77
2022-08-28T03:14:43.951Z,8.27
2022-08-28T03:17:10.646Z,7.67
2022-08-28T03:19:37.277Z,8.10
2022-08-28T03:22:03.920Z,13.97
2022-08-28T03:24:30.653Z,5.77
2022-08-28T03:26:57.352Z,5.20
2022-08-28T03:29:23.990Z,9.00
2022-08-28T03:31:50.908Z,7.83
2022-08-28T03:34:17.534Z,9.27
2022-08-28T03:36:44.158Z,4.27
2022-08-28T03:39:10.910Z,10.53
2022-08-28T03:41:37.529Z,6.33
2022-08-28T03:44:04.162Z,9.80
2022-08-28T03:46:34.410Z,6.47
2022-08-28T03:49:02.335Z,7.30
2022-08-28T03:51:31.795Z,10.03
2022-08-28T03:53:59.108Z,6.23
2022-08-28T03:56:26.909Z,7.20
2022-08-28T03:58:55.560Z,9.37
2022-08-28T04:01:22.418Z,10.00
2022-08-28T04:03:49.427Z,10.53
2022-08-28T04:06:16.607Z,13.67
2022-08-28T04:08:43.334Z,11.63
2022-08-28T04:11:10.215Z,7.17
2022-08-28T04:13:36.871Z,8.77
2022-08-28T04:16:10.953Z,10.40
2022-08-28T04:18:39.495Z,15.00
2022-08-28T04:21:17.114Z,12.43
2022-08-28T04:23:45.055Z,8.53
2022-08-28T04:26:13.363Z,9.57
2022-08-28T04:28:40.260Z,9.90
2022-08-28T04:31:08.301Z,11.10
2022-08-28T04:33:35.823Z,10.67
2022-08-28T04:36:04.085Z,10.23
2022-08-28T04:38:31.162Z,10.67
2022-08-28T04:40:58.034Z,13.70
2022-08-28T04:43:25.641Z,8.13
2022-08-28T04:45:52.389Z,10.33
2022-08-28T04:48:19.581Z,11.40
2022-08-28T04:50:47.628Z,11.83
2022-08-28T04:53:14.968Z,12.40
2022-08-28T04:55:54.567Z,10.60
2022-08-28T04:58:24.173Z,11.57
2022-08-28T05:00:51.749Z,12.60
2022-08-28T05:03:18.496Z,10.23
2022-08-28T05:05:49.070Z,13.10
2022-08-28T05:08:16.537Z,9.47
2022-08-28T05:10:43.587Z,14.87
2022-08-28T05:13:11.215Z,15.80
2022-08-28T05:15:41.965Z,12.73
2022-08-28T05:18:08.743Z,12.07
2022-08-28T05:20:36.785Z,13.50
2022-08-28T05:23:03.916Z,8.70
2022-08-28T05:25:32.500Z,12.23
2022-08-28T05:27:59.235Z,11.00
2022-08-28T05:30:25.974Z,11.60
2022-08-28T05:32:52.620Z,11.27
2022-08-28T05:35:19.299Z,10.37
2022-08-28T05:37:45.924Z,11.60
2022-08-28T05:40:12.771Z,10.07
2022-08-28T05:42:39.879Z,7.67
2022-08-28T05:45:06.816Z,12.67
2022-08-28T05:47:33.508Z,9.77
2022-08-28T05:50:00.190Z,7.27
2022-08-28T05:52:28.793Z,10.07
2022-08-28T05:54:55.714Z,12.83
2022-08-28T05:57:22.345Z,8.77
2022-08-28T05:59:50.368Z,10.93
2022-08-28T06:02:17.173Z,10.17
2022-08-28T06:04:43.837Z,8.17
2022-08-28T06:07:12.220Z,8.83
2022-08-28T06:09:38.865Z,10.43
2022-08-28T06:12:05.611Z,13.23
2022-08-28T06:14:32.952Z,7.10
2022-08-28T06:17:01.958Z,13.40
2022-08-28T06:19:29.718Z,11.50
2022-08-28T06:21:57.744Z,13.10
2022-08-28T06:24:25.282Z,8.83
2022-08-28T06:26:52.639Z,10.63
2022-08-28T06:29:22.351Z,12.60
2022-08-28T06:31:55.813Z,10.10
2022-08-28T06:34:22.490Z,9.33
2022-08-28T06:36:53.612Z,10.30
2022-08-28T06:39:21.255Z,9.13
2022-08-28T06:41:47.921Z,7.70
2022-08-28T06:44:19.953Z,10.27
2022-08-28T06:46:47.951Z,9.87
2022-08-28T06:49:15.191Z,9.03
2022-08-28T06:51:41.895Z,11.53
2022-08-28T06:54:09.088Z,9.53
2022-08-28T06:56:36.036Z,6.40
2022-08-28T06:59:02.747Z,8.33
2022-08-28T07:01:31.511Z,11.40
2022-08-28T07:03:59.888Z,6.93
2022-08-28T07:06:26.811Z,8.60
2022-08-28T07:08:53.578Z,12.33
2022-08-28T07:11:26.038Z,11.97
2022-08-28T07:13:53.612Z,5.83
2022-08-28T07:16:20.901Z,6.80
2022-08-28T07:18:47.510Z,8.57
2022-08-28T07:21:14.149Z,12.73
2022-08-28T07:23:42.265Z,9.67
2022-08-28T07:26:11.131Z,8.80
2022-08-28T07:28:37.812Z,8.10
2022-08-28T07:31:06.102Z,7.43
2022-08-28T07:33:34.974Z,6.87
2022-08-28T07:36:01.755Z,14.13
2022-08-28T07:38:28.384Z,9.87
2022-08-28T07:40:55.246Z,6.43
2022-08-28T07:43:41.718Z,5.40
2022-08-28T07:46:09.642Z,5.47
2022-08-28T07:48:36.846Z,10.83
2022-08-28T07:51:04.175Z,9.73
2022-08-28T07:53:35.778Z,6.87
2022-08-28T07:56:03.496Z,11.47
2022-08-28T07:58:30.139Z,5.70
2022-08-28T08:00:57.845Z,6.27
2022-08-28T08:03:25.769Z,5.37
2022-08-28T08:05:57.290Z,7.23
2022-08-28T08:08:24.862Z,9.00
2022-08-28T08:10:59.374Z,8.17
2022-08-28T08:13:26.145Z,7.53
2022-08-28T08:15:53.131Z,6.90
2022-08-28T08:18:20.834Z,7.23
2022-08-28T08:20:51.513Z,9.67
2022-08-28T08:23:18.140Z,8.87
2022-08-28T08:25:56.397Z,7.83
2022-08-28T08:28:23.115Z,4.63
2022-08-28T08:30:49.904Z,7.67
2022-08-28T08:33:16.647Z,8.83
2022-08-28T08:35:43.397Z,5.23
2022-08-28T08:38:10.214Z,4.43
2022-08-28T08:40:37.054Z,7.17
2022-08-28T08:43:03.748Z,8.57
2022-08-28T08:45:32.045Z,8.73
2022-08-28T08:48:00.471Z,7.83
2022-08-28T08:50:29.395Z,8.50
2022-08-28T08:53:18.757Z,6.63
2022-08-28T08:55:47.741Z,6.07
2022-08-28T08:58:32.859Z,6.43
2022-08-28T09:01:17.893Z,5.23
2022-08-28T09:03:49.509Z,6.27
2022-08-28T09:06:24.874Z,5.13
2022-08-28T09:08:55.278Z,6.23
2022-08-28T09:11:40.216Z,6.40
2022-08-28T09:14:10.312Z,6.17
2022-08-28T09:16:39.667Z,5.63
2022-08-28T09:19:07.403Z,7.37
2022-08-28T09:21:35.292Z,8.77
2022-08-28T09:24:05.637Z,6.17
2022-08-28T09:26:34.418Z,6.50
2022-08-28T09:29:03.742Z,9.10
2022-08-28T09:31:38.626Z,8.30
2022-08-28T09:34:39.242Z,8.37
2022-08-28T09:37:08.277Z,5.83
2022-08-28T09:39:37.989Z,10.63
2022-08-28T09:42:32.426Z,6.97
2022-08-28T09:45:01.314Z,9.03
2022-08-28T09:47:46.974Z,7.37
2022-08-28T09:50:16.965Z,9.23
2022-08-28T09:52:43.601Z,7.33
2022-08-28T09:55:12.220Z,7.60
2022-08-28T09:57:42.514Z,5.60
2022-08-28T10:00:09.608Z,8.90
2022-08-28T10:02:46.819Z,8.33
2022-08-28T10:05:16.609Z,6.30
2022-08-28T10:07:53.160Z,7.03
2022-08-28T10:10:40.293Z,8.13
2022-08-28T10:13:19.209Z,8.77
2022-08-28T10:15:49.610Z,7.23
2022-08-28T10:18:19.328Z,5.93
2022-08-28T10:20:52.484Z,9.93
2022-08-28T10:23:28.021Z,9.20
2022-08-28T10:26:03.632Z,4.83
2022-08-28T10:28:43.960Z,3.80
2022-08-28T10:31:19.928Z,6.07
2022-08-28T10:34:07.078Z,5.83
2022-08-28T10:36:35.313Z,6.30
2022-08-28T10:39:01.911Z,6.37
2022-08-28T10:41:41.785Z,3.87
2022-08-28T10:44:09.340Z,4.87
2022-08-28T10:46:49.067Z,5.23
2022-08-28T10:49:45.231Z,6.57
2022-08-28T10:52:15.548Z,6.23
2022-08-28T10:54:54.088Z,5.93
2022-08-28T10:57:39.413Z,8.13
2022-08-28T11:00:12.447Z,5.10
2022-08-28T11:02:44.138Z,8.90
2022-08-28T11:05:11.386Z,7.70
2022-08-28T11:07:47.131Z,6.80
2022-08-28T11:10:19.957Z,6.50
2022-08-28T11:12:48.003Z,2.63
2022-08-28T11:15:41.115Z,4.33
2022-08-28T11:18:10.806Z,5.17
2022-08-28T11:20:39.332Z,5.60
2022-08-28T11:23:15.754Z,5.97
2022-08-28T11:25:51.627Z,6.47
2022-08-28T11:28:24.024Z,3.10
2022-08-28T11:31:05.739Z,6.17
2022-08-28T11:33:38.447Z,8.23
2022-08-28T11:36:09.882Z,5.30
2022-08-28T11:38:42.432Z,6.77
2022-08-28T11:41:15.004Z,4.20
2022-08-28T11:43:43.783Z,4.67
2022-08-28T11:46:18.212Z,7.33
2022-08-28T11:48:49.069Z,6.53
2022-08-28T11:51:18.757Z,6.97
2022-08-28T11:53:59.867Z,6.50
2022-08-28T11:56:33.254Z,6.60
2022-08-28T11:59:20.146Z,6.37
2022-08-28T12:01:49.372Z,4.60
2022-08-28T12:04:17.776Z,4.30
2022-08-28T12:06:44.535Z,6.73
2022-08-28T12:09:12.313Z,3.13
2022-08-28T12:11:41.842Z,4.70
2022-08-28T12:14:09.707Z,4.43
2022-08-28T12:16:55.049Z,5.27
2022-08-28T12:22:17.426Z,4.87
2022-08-28T12:24:46.290Z,8.53
2022-08-28T12:27:13.780Z,3.53
2022-08-28T12:29:46.176Z,3.73
2022-08-28T12:32:32.743Z,7.47
2022-08-28T12:34:59.335Z,3.43
2022-08-28T12:37:30.927Z,3.33
2022-08-28T12:40:13.682Z,7.43
2022-08-28T12:42:46.315Z,6.27
2022-08-28T12:45:16.990Z,6.17
2022-08-28T12:47:45.373Z,7.27
2022-08-28T12:50:38.417Z,2.33
2022-08-28T12:53:07.357Z,6.23
2022-08-28T12:55:35.837Z,5.33
2022-08-28T12:58:02.549Z,3.70
2022-08-28T13:00:35.067Z,4.10
2022-08-28T13:03:04.670Z,5.87
2022-08-28T13:05:33.444Z,4.73
2022-08-28T13:08:05.345Z,3.90
2022-08-28T13:10:37.832Z,4.10
2022-08-28T13:13:07.163Z,2.87
2022-08-28T13:15:45.277Z,5.70
2022-08-28T13:18:33.179Z,5.30
2022-08-28T13:21:30.837Z,2.10
2022-08-28T13:24:21.249Z,3.67
2022-08-28T13:26:49.111Z,3.87
2022-08-28T13:29:24.363Z,2.47
2022-08-28T13:31:59.738Z,4.73
2022-08-28T13:34:30.684Z,3.77
2022-08-28T13:37:01.847Z,2.63
2022-08-28T13:39:32.050Z,2.80
2022-08-28T13:42:00.587Z,3.67
2022-08-28T13:44:30.233Z,4.37
2022-08-28T13:46:57.366Z,3.20
2022-08-28T13:49:24.142Z,4.30
2022-08-28T13:51:50.984Z,3.17
2022-08-28T13:54:18.215Z,2.60
2022-08-28T13:56:46.628Z,4.70
2022-08-28T13:59:13.265Z,2.57
2022-08-28T14:01:58.780Z,3.20
2022-08-28T14:04:25.471Z,3.97
2022-08-28T14:06:52.358Z,4.30
2022-08-28T14:09:19.622Z,3.20
2022-08-28T14:11:48.588Z,3.57
2022-08-28T14:14:15.838Z,3.97
2022-08-28T14:16:44.973Z,3.27
2022-08-28T14:19:12.198Z,4.70
2022-08-28T14:21:40.354Z,4.90
2022-08-28T14:24:07.824Z,4.23
2022-08-28T14:26:34.611Z,3.53
2022-08-28T14:29:02.165Z,3.07
2022-08-28T14:31:29.704Z,3.13
2022-08-28T14:33:57.344Z,3.57
2022-08-28T14:36:25.528Z,2.33
2022-08-28T14:38:54.346Z,2.63
2022-08-28T14:41:22.032Z,3.00
2022-08-28T14:43:49.703Z,2.97
2022-08-28T14:46:16.670Z,2.80
2022-08-28T14:48:44.037Z,5.57
2022-08-28T14:51:11.297Z,3.67
2022-08-28T14:53:38.189Z,4.90
2022-08-28T14:56:06.305Z,2.37
2022-08-28T14:58:34.159Z,3.47
2022-08-28T15:01:01.277Z,2.50
2022-08-28T15:03:27.997Z,3.07
2022-08-28T15:06:05.724Z,3.97
2022-08-28T15:08:32.617Z,2.87
2022-08-28T15:10:59.471Z,4.17
2022-08-28T15:13:26.244Z,1.90
2022-08-28T15:16:05.964Z,5.00
2022-08-28T15:18:42.459Z,3.30
2022-08-28T15:21:21.671Z,2.83
2022-08-28T15:23:49.753Z,2.57
2022-08-28T15:26:17.105Z,2.90
2022-08-28T15:28:44.919Z,3.63
2022-08-28T15:31:11.864Z,4.00
2022-08-28T15:33:43.298Z,3.90
2022-08-28T15:36:12.334Z,2.60
2022-08-28T15:38:57.929Z,2.90
2022-08-28T15:41:24.798Z,3.37
2022-08-28T15:43:53.440Z,3.63
2022-08-28T15:46:20.265Z,3.07
2022-08-28T15:48:50.295Z,4.27
2022-08-28T15:51:25.570Z,2.13
2022-08-28T15:53:52.730Z,3.17
2022-08-28T15:56:20.118Z,3.10
2022-08-28T15:58:47.332Z,2.17
2022-08-28T16:01:14.721Z,2.77
2022-08-28T16:03:41.520Z,2.90
2022-08-28T16:06:13.645Z,5.97
2022-08-28T16:08:40.740Z,4.17
2022-08-28T16:11:07.746Z,3.03
2022-08-28T16:13:35.503Z,4.00
2022-08-28T16:16:02.998Z,1.90
2022-08-28T16:18:29.940Z,3.00
2022-08-28T16:20:57.518Z,3.23
2022-08-28T16:23:26.210Z,1.83
2022-08-28T16:25:52.913Z,4.03
2022-08-28T16:28:19.556Z,3.93
2022-08-28T16:30:46.657Z,4.20
2022-08-28T16:33:13.744Z,2.33
2022-08-28T16:35:48.264Z,3.53
2022-08-28T16:38:17.732Z,2.03
2022-08-28T16:40:45.098Z,3.47
2022-08-28T16:43:12.457Z,2.17
2022-08-28T16:45:41.486Z,3.53
2022-08-28T16:48:08.127Z,1.97
2022-08-28T16:50:34.980Z,3.33
2022-08-28T16:53:06.717Z,3.70
2022-08-28T16:55:34.178Z,4.80
2022-08-28T16:58:00.804Z,3.60
2022-08-28T17:00:27.465Z,3.73
2022-08-28T17:02:54.261Z,2.00
2022-08-28T17:05:21.333Z,4.00
2022-08-28T17:07:48.103Z,2.60
2022-08-28T17:10:17.029Z,3.53
2022-08-28T17:12:43.680Z,2.10
2022-08-28T17:15:11.465Z,1.50
2022-08-28T17:17:38.747Z,4.30
2022-08-28T17:20:06.241Z,2.30
2022-08-28T17:22:33.027Z,3.00
2022-08-28T17:25:01.561Z,2.77
2022-08-28T17:27:28.679Z,3.80
2022-08-28T17:29:55.365Z,2.37
2022-08-28T17:32:22.028Z,3.50
2022-08-28T17:34:48.781Z,2.80
2022-08-28T17:37:16.286Z,3.57
2022-08-28T17:39:43.057Z,2.57
2022-08-28T17:42:09.828Z,3.80
2022-08-28T17:44:36.778Z,2.47
2022-08-28T17:47:03.816Z,2.60
2022-08-28T17:49:30.492Z,2.70
2022-08-28T17:51:57.615Z,5.47
2022-08-28T17:54:24.473Z,2.77
2022-08-28T17:56:54.756Z,4.00
2022-08-28T17:59:22.578Z,2.80
2022-08-28T18:01:49.999Z,2.07
2022-08-28T18:04:21.645Z,1.53
2022-08-28T18:06:52.724Z,4.60
2022-08-28T18:09:19.784Z,2.33
2022-08-28T18:11:46.545Z,3.47
2022-08-28T18:14:13.461Z,3.73
2022-08-28T18:16:40.611Z,4.20
2022-08-28T18:19:09.935Z,3.07
2022-08-28T18:21:37.667Z,2.07
2022-08-28T18:24:05.279Z,2.87
2022-08-28T18:26:32.261Z,2.67
2022-08-28T18:28:59.655Z,5.47
2022-08-28T18:31:26.944Z,2.63
2022-08-28T18:33:54.606Z,2.30
2022-08-28T18:36:23.357Z,2.83
2022-08-28T18:38:50.951Z,3.93
2022-08-28T18:41:20.397Z,3.17
2022-08-28T18:43:47.545Z,2.80
2022-08-28T18:46:14.721Z,2.57
2022-08-28T18:48:42.191Z,2.93
2022-08-28T18:51:10.149Z,2.20
2022-08-28T18:53:38.884Z,3.30
2022-08-28T18:56:09.207Z,2.70
2022-08-28T18:58:39.689Z,3.87
2022-08-28T19:01:08.328Z,2.03
2022-08-28T19:03:35.581Z,4.57
2022-08-28T19:06:02.240Z,2.60
2022-08-28T19:08:28.930Z,5.03
2022-08-28T19:10:55.642Z,1.53
2022-08-28T19:13:22.401Z,4.13
2022-08-28T19:15:50.752Z,2.63
2022-08-28T19:18:19.327Z,2.57
2022-08-28T19:20:46.077Z,4.83
2022-08-28T19:23:17.282Z,2.67
2022-08-28T19:25:44.474Z,4.27
2022-08-28T19:28:11.215Z,4.57
2022-08-28T19:30:38.212Z,3.60
2022-08-28T19:33:05.846Z,2.70
2022-08-28T19:35:33.821Z,3.70
2022-08-28T19:38:00.814Z,2.30
2022-08-28T19:40:27.828Z,2.50
2022-08-28T19:42:54.745Z,3.20
2022-08-28T19:45:24.090Z,3.03
2022-08-28T19:47:52.237Z,4.23
2022-08-28T19:50:19.673Z,3.27
2022-08-28T19:52:46.702Z,2.77
2022-08-28T19:55:27.763Z,3.50
2022-08-28T19:57:54.947Z,4.10
2022-08-28T20:00:23.629Z,3.33
2022-08-28T20:02:52.335Z,2.13
2022-08-28T20:05:19.764Z,2.87
2022-08-28T20:07:46.377Z,4.97
2022-08-28T20:10:13.682Z,4.10
2022-08-28T20:12:40.331Z,4.07
2022-08-28T20:15:15.927Z,6.27
2022-08-28T20:17:43.932Z,3.07
2022-08-28T20:20:20.353Z,3.97
2022-08-28T20:22:47.207Z,3.20
2022-08-28T20:25:15.724Z,3.03
2022-08-28T20:27:42.445Z,3.73
2022-08-28T20:30:10.648Z,8.00
2022-08-28T20:32:40.109Z,2.67
2022-08-28T20:35:09.086Z,4.20
2022-08-28T20:37:44.566Z,4.17
2022-08-28T20:40:13.475Z,4.30
2022-08-28T20:42:40.150Z,5.83
2022-08-28T20:45:07.273Z,7.07
2022-08-28T20:47:33.898Z,2.87
2022-08-28T20:50:00.578Z,5.47
2022-08-28T20:52:27.296Z,5.17
2022-08-28T20:54:53.903Z,6.57
2022-08-28T20:57:21.407Z,4.63
2022-08-28T20:59:48.318Z,3.70
2022-08-28T21:02:17.050Z,4.13
2022-08-28T21:04:45.602Z,3.23
2022-08-28T21:07:13.232Z,4.67
2022-08-28T21:10:05.424Z,1.97
2022-08-28T21:12:27.087Z,2.70
2022-08-28T21:14:53.787Z,5.10
2022-08-28T21:17:29.967Z,3.00
2022-08-28T21:19:58.780Z,2.10
2022-08-28T21:22:25.424Z,3.27
2022-08-28T21:24:52.104Z,3.67
2022-08-28T21:27:18.830Z,4.03
2022-08-28T21:29:46.153Z,3.13
2022-08-28T21:32:12.867Z,4.37
2022-08-28T21:34:39.463Z,4.03
2022-08-28T21:37:06.499Z,4.53
2022-08-28T21:39:33.361Z,3.93
2022-08-28T21:42:00.168Z,5.20
2022-08-28T21:44:26.861Z,4.97
2022-08-28T21:46:53.603Z,3.60
2022-08-28T21:49:22.717Z,3.93
2022-08-28T21:51:49.488Z,5.13
2022-08-28T21:54:16.170Z,6.47
2022-08-28T21:56:42.841Z,2.80
2022-08-28T21:59:09.497Z,5.20
2022-08-28T22:01:36.430Z,4.70
2022-08-28T22:04:03.308Z,7.20
2022-08-28T22:06:30.003Z,3.73
2022-08-28T22:08:56.760Z,3.60
2022-08-28T22:11:25.199Z,2.60
2022-08-28T22:13:52.612Z,4.50
2022-08-28T22:16:19.690Z,3.10
2022-08-28T22:18:46.678Z,3.83
2022-08-28T22:21:32.911Z,6.67
2022-08-28T22:23:59.693Z,6.13
2022-08-28T22:26:26.459Z,4.90
2022-08-28T22:28:53.260Z,3.17
2022-08-28T22:31:19.873Z,5.27
2022-08-28T22:33:46.598Z,5.03
2022-08-28T22:36:13.340Z,5.77
2022-08-28T22:38:41.147Z,4.07
2022-08-28T22:41:13.779Z,5.67
2022-08-28T22:43:40.486Z,3.83
2022-08-28T22:46:07.934Z,3.50
2022-08-28T22:48:34.779Z,3.37
2022-08-28T22:51:03.233Z,6.53
2022-08-28T22:53:31.116Z,6.33
2022-08-28T22:55:58.311Z,3.27
2022-08-28T22:58:25.004Z,3.60
2022-08-28T23:00:52.503Z,3.37
2022-08-28T23:03:19.439Z,4.50
2022-08-28T23:05:46.214Z,3.67
2022-08-28T23:08:12.918Z,8.10
2022-08-28T23:10:58.016Z,3.50
2022-08-28T23:13:25.479Z,6.83
2022-08-28T23:15:52.187Z,5.23
2022-08-28T23:18:18.875Z,4.47
2022-08-28T23:20:45.637Z,3.03
2022-08-28T23:23:12.387Z,3.70
2022-08-28T23:25:39.476Z,4.27
2022-08-28T23:28:09.771Z,2.50
2022-08-28T23:30:39.172Z,3.13
2022-08-28T23:33:08.445Z,7.43
2022-08-28T23:35:36.401Z,2.70
2022-08-28T23:38:03.666Z,6.07
2022-08-28T23:40:30.669Z,5.47
2022-08-28T23:42:58.137Z,3.27
2022-08-28T23:45:26.220Z,3.63
2022-08-28T23:47:54.106Z,4.37
2022-08-28T23:50:22.648Z,5.33
2022-08-28T23:52:49.435Z,3.87
2022-08-28T23:55:16.985Z,4.07
2022-08-28T23:57:44.162Z,5.80
